KRWL/RWL METAR and TAF weather

Enter ICAO airport designator
Station Type Date Time Source
KRWL METAR 2021/09/27 06:53 UTC NOAA

KRWL 270653Z AUTO 25003KT 10SM CLR 14/M06 A3015 RMK AO2 SLP111 T01441061 402670083


Station Type Date Time Source
KRWL Decoded METAR 2021/09/27 06:53 UTC NOAA

RAWLINS MUNICIPAL AIRPORT, WY, United States (KRWL) 41-48N 107-12W
Sep 27, 2021 - 02:53 AM EDT / 2021.09.27 0653 UTC
Wind: from the WSW (250 degrees) at 3 MPH (3 KT):0
Visibility: 10 mile(s):0
Sky conditions: clear
Temperature: 57.9 F (14.4 C)
Dew Point: 21.0 F (-6.1 C)
Relative Humidity: 23%
Pressure (altimeter): 30.15 in. Hg (1020 hPa)
ob: KRWL 270653Z AUTO 25003KT 10SM CLR 14/M06 A3015 RMK AO2 SLP111 T01441061 402670083
cycle: 7

Station Type Date Time Source
KRWL TAF 2021/09/27 06:22 UTC NOAA

TAF KRWL 270520Z 2706/2806 24010KT P6SM SKC

Example: see airport list